Time;durP1;ratioP1;P1;durP2;ratioP2;P2;SDS_P1;SDS_P2;PMS_P1;PMS_P2;Temp;Humidity;BMP_temperature;BMP_pressure;BME280_temperature;BME280_humidity;BME280_pressure;Samples;Min_cycle;Max_cycle;Signal;HPM_P1;HPM_P2
2022/06/22 00:01:08;;;;;;;;;;;18.90;1.00;;;;;;10251398;28;84308;-60
2022/06/22 00:06:31;;;;;;;;;;;18.90;1.00;;;;;;10199029;28;84815;-61
2022/06/22 00:11:32;;;;;;;;;;;18.90;1.00;;;;;;10220679;28;84096;-59
2022/06/22 00:16:37;;;;;;;;;;;18.90;1.00;;;;;;10254168;28;84937;-61
2022/06/22 00:21:41;;;;;;;;;;;18.80;1.00;;;;;;10244161;28;84114;-59
2022/06/22 00:26:47;;;;;;;;;;;18.80;99.90;;;;;;10212192;28;85437;-61
2022/06/22 00:31:47;;;;;;;;;;;18.80;99.90;;;;;;10256774;22;87095;-52
2022/06/22 00:36:49;;;;;;;;;;;18.80;99.90;;;;;;10209427;28;84300;-52
2022/06/22 00:41:50;;;;;;;;;;;18.70;1.00;;;;;;10210408;28;84138;-56
2022/06/22 00:46:55;;;;;;;;;;;18.60;1.00;;;;;;10210689;28;84920;-50
2022/06/22 00:51:58;;;;;;;;;;;18.60;99.90;;;;;;10206977;28;85026;-50
2022/06/22 00:57:09;;;;;;;;;;;18.40;1.00;;;;;;10205091;28;84969;-49
2022/06/22 01:02:28;;;;;;;;;;;18.30;1.00;;;;;;10173142;28;84223;-53
2022/06/22 01:07:46;;;;;;;;;;;18.20;99.90;;;;;;10210561;28;84108;-53
2022/06/22 01:13:07;;;;;;;;;;;18.10;1.00;;;;;;10208282;28;86016;-55
2022/06/22 01:18:11;;;;;;;;;;;18.00;1.00;;;;;;10209587;28;84672;-54
2022/06/22 01:23:11;;;;;;;;;;;17.90;1.00;;;;;;10208885;28;84082;-51
2022/06/22 01:28:13;;;;;;;;;;;17.80;99.90;;;;;;10207990;28;84827;-49
2022/06/22 01:33:34;;;;;;;;;;;17.70;1.00;;;;;;10208412;28;84318;-50
2022/06/22 01:38:37;;;;;;;;;;;17.60;1.00;;;;;;10209482;28;84958;-49
2022/06/22 01:43:42;;;;;;;;;;;17.60;1.00;;;;;;10208356;28;84152;-56
2022/06/22 01:48:46;;;;;;;;;;;17.40;1.00;;;;;;10209595;28;84997;-49
2022/06/22 01:53:56;;;;;;;;;;;17.30;1.00;;;;;;10208189;28;84913;-54
2022/06/22 01:59:02;;;;;;;;;;;17.20;59.10;;;;;;10208446;28;84168;-53
2022/06/22 02:04:13;;;;;;;;;;;17.10;99.90;;;;;;10208064;28;85261;-50
2022/06/22 02:09:14;;;;;;;;;;;17.10;99.90;;;;;;10207175;28;84147;-54
2022/06/22 02:14:25;;;;;;;;;;;17.00;99.90;;;;;;10207221;28;84094;-53
2022/06/22 02:19:29;;;;;;;;;;;17.00;99.90;;;;;;10207378;28;84932;-53
2022/06/22 02:24:38;;;;;;;;;;;16.90;99.90;;;;;;10205925;28;86042;-48
2022/06/22 02:29:39;;;;;;;;;;;16.90;1.00;;;;;;10206619;28;84764;-54
2022/06/22 02:34:41;;;;;;;;;;;16.80;1.00;;;;;;10209891;28;84792;-49
2022/06/22 02:39:44;;;;;;;;;;;16.90;1.00;;;;;;10238904;28;84235;-50
2022/06/22 02:44:45;;;;;;;;;;;16.80;1.00;;;;;;10222991;28;84879;-48
2022/06/22 02:49:49;;;;;;;;;;;16.70;1.00;;;;;;10206182;28;83968;-52
2022/06/22 02:54:52;;;;;;;;;;;16.60;1.00;;;;;;10219682;28;85031;-53
2022/06/22 02:59:53;;;;;;;;;;;16.40;1.00;;;;;;10246853;28;84733;-52
2022/06/22 03:04:56;;;;;;;;;;;16.30;1.00;;;;;;10222317;28;84031;-53
2022/06/22 03:09:56;;;;;;;;;;;16.30;1.00;;;;;;10205654;28;84994;-47
2022/06/22 03:15:00;;;;;;;;;;;16.20;1.00;;;;;;10205177;28;84110;-53
2022/06/22 03:20:04;;;;;;;;;;;16.00;1.00;;;;;;10205359;28;85035;-54
2022/06/22 03:25:10;;;;;;;;;;;16.00;1.00;;;;;;10213791;28;84292;-51
2022/06/22 03:30:16;;;;;;;;;;;15.80;1.00;;;;;;10205293;28;84337;-52
2022/06/22 03:35:22;;;;;;;;;;;15.70;1.00;;;;;;10179105;28;84887;-49
2022/06/22 03:40:27;;;;;;;;;;;15.60;1.00;;;;;;10165188;28;84831;-52
2022/06/22 03:45:30;;;;;;;;;;;15.60;1.00;;;;;;10187921;28;84398;-52
2022/06/22 03:50:38;;;;;;;;;;;15.50;1.00;;;;;;10209652;28;85042;-51
2022/06/22 03:55:42;;;;;;;;;;;15.40;1.00;;;;;;10210326;28;84215;-51
2022/06/22 04:00:44;;;;;;;;;;;15.40;1.00;;;;;;10210797;28;84656;-51
2022/06/22 04:05:48;;;;;;;;;;;15.40;1.00;;;;;;10211852;28;84126;-49
2022/06/22 04:11:01;;;;;;;;;;;15.40;1.00;;;;;;10208244;28;84209;-52
2022/06/22 04:16:05;;;;;;;;;;;15.40;1.00;;;;;;10208177;28;84802;-56
2022/06/22 04:21:08;;;;;;;;;;;15.50;1.00;;;;;;10209947;28;84796;-50
2022/06/22 04:26:18;;;;;;;;;;;15.60;1.00;;;;;;10221030;28;84984;-51
2022/06/22 04:31:22;;;;;;;;;;;15.70;1.00;;;;;;10209270;28;84757;-53
2022/06/22 04:36:27;;;;;;;;;;;15.70;1.00;;;;;;10208023;28;86125;-56
2022/06/22 04:41:35;;;;;;;;;;;15.80;1.00;;;;;;10206201;28;84271;-54
2022/06/22 04:46:39;;;;;;;;;;;15.80;1.00;;;;;;10209489;28;84966;-54
2022/06/22 04:51:40;;;;;;;;;;;16.00;1.00;;;;;;10207594;28;84996;-50
2022/06/22 04:56:42;;;;;;;;;;;16.00;1.00;;;;;;10208085;28;84890;-52
2022/06/22 05:01:51;;;;;;;;;;;16.10;1.00;;;;;;10207787;28;84254;-58
2022/06/22 05:07:03;;;;;;;;;;;16.20;1.00;;;;;;10205523;28;84961;-57
2022/06/22 05:12:08;;;;;;;;;;;16.30;1.00;;;;;;10199299;28;84807;-52
2022/06/22 05:17:18;;;;;;;;;;;16.30;99.90;;;;;;10209288;28;84180;-53
2022/06/22 05:22:18;;;;;;;;;;;16.40;99.90;;;;;;10207063;28;86990;-50
2022/06/22 05:27:23;;;;;;;;;;;16.60;99.90;;;;;;10201156;28;84010;-50
2022/06/22 05:32:27;;;;;;;;;;;16.70;99.90;;;;;;10222588;28;84287;-51
2022/06/22 05:37:29;;;;;;;;;;;16.90;99.90;;;;;;10206303;28;84580;-52
2022/06/22 05:42:31;;;;;;;;;;;17.00;1.00;;;;;;10204367;28;84955;-55
2022/06/22 05:47:33;;;;;;;;;;;17.20;1.00;;;;;;10205872;28;86068;-53
2022/06/22 05:52:44;;;;;;;;;;;17.30;99.90;;;;;;10220678;28;86910;-56
2022/06/22 05:57:52;;;;;;;;;;;17.60;99.90;;;;;;10203043;28;84964;-52
2022/06/22 06:03:01;;;;;;;;;;;17.80;1.00;;;;;;10204482;28;85131;-51
2022/06/22 06:08:06;;;;;;;;;;;17.90;99.90;;;;;;10208731;28;84440;-50
2022/06/22 06:13:18;;;;;;;;;;;18.00;1.00;;;;;;10207032;28;84199;-53
2022/06/22 06:18:25;;;;;;;;;;;18.40;1.00;;;;;;10207821;28;84352;-49
2022/06/22 06:23:28;;;;;;;;;;;18.60;99.90;;;;;;10205606;28;84895;-50
2022/06/22 06:28:34;;;;;;;;;;;18.70;99.90;;;;;;10207460;28;84151;-50
2022/06/22 06:33:36;;;;;;;;;;;19.00;1.00;;;;;;10237893;23;85711;-46
2022/06/22 06:38:41;;;;;;;;;;;19.20;99.90;;;;;;10245869;28;87258;-46
2022/06/22 06:43:41;;;;;;;;;;;19.30;1.00;;;;;;10246295;28;84043;-51
2022/06/22 06:48:44;;;;;;;;;;;19.50;99.90;;;;;;10244941;28;84363;-49
2022/06/22 06:53:51;;;;;;;;;;;19.70;1.00;;;;;;10245859;28;84105;-50
2022/06/22 06:59:04;;;;;;;;;;;19.90;99.90;;;;;;10245174;28;84178;-52
2022/06/22 07:04:11;;;;;;;;;;;20.20;97.00;;;;;;10249194;28;84276;-53
2022/06/22 07:09:41;;;;;;;;;;;20.60;99.90;;;;;;10247626;28;84127;-51
2022/06/22 07:14:42;;;;;;;;;;;20.70;1.00;;;;;;10239031;28;84319;-51
2022/06/22 07:19:45;;;;;;;;;;;20.90;1.00;;;;;;10249934;28;85070;-52
2022/06/22 07:24:52;;;;;;;;;;;21.40;1.00;;;;;;10241909;28;84241;-49
2022/06/22 07:29:53;;;;;;;;;;;21.80;46.70;;;;;;10243920;28;84372;-45
2022/06/22 07:35:03;;;;;;;;;;;22.30;1.00;;;;;;10230620;28;84008;-52
2022/06/22 07:40:15;;;;;;;;;;;22.60;99.90;;;;;;10232218;28;84874;-49
2022/06/22 07:45:17;;;;;;;;;;;23.40;1.00;;;;;;10248609;28;87219;-52
2022/06/22 07:50:20;;;;;;;;;;;24.00;1.00;;;;;;10250644;28;84299;-52
2022/06/22 07:55:44;;;;;;;;;;;24.90;1.00;;;;;;10238910;28;84300;-52
2022/06/22 08:00:47;;;;;;;;;;;25.50;99.90;;;;;;10252964;28;84142;-49
2022/06/22 08:05:49;;;;;;;;;;;26.00;99.90;;;;;;10251377;28;84241;-51
2022/06/22 08:10:55;;;;;;;;;;;26.30;28.30;;;;;;10250915;28;84400;-53
2022/06/22 08:15:59;;;;;;;;;;;26.20;1.00;;;;;;10248618;28;84284;-50
2022/06/22 08:20:59;;;;;;;;;;;26.40;1.00;;;;;;10248931;28;85303;-53
2022/06/22 08:26:02;;;;;;;;;;;26.50;1.00;;;;;;10249358;28;84279;-54
2022/06/22 08:31:03;;;;;;;;;;;26.60;1.00;;;;;;10248702;28;86308;-50
2022/06/22 08:36:08;;;;;;;;;;;26.90;1.00;;;;;;10247059;28;84359;-51
2022/06/22 08:41:09;;;;;;;;;;;26.20;1.00;;;;;;10248003;28;84966;-51
2022/06/22 08:46:25;;;;;;;;;;;25.90;1.00;;;;;;10220193;28;84957;-53
2022/06/22 08:51:25;;;;;;;;;;;26.30;1.00;;;;;;10210055;28;85094;-54
2022/06/22 08:56:38;;;;;;;;;;;26.90;1.00;;;;;;10212610;28;85010;-49
2022/06/22 09:01:58;;;;;;;;;;;27.40;1.00;;;;;;10209966;28;84694;-51
2022/06/22 09:07:17;;;;;;;;;;;27.40;1.00;;;;;;10244602;28;86377;-53
2022/06/22 09:12:33;;;;;;;;;;;27.50;1.00;;;;;;10242689;28;84817;-49
2022/06/22 09:17:51;;;;;;;;;;;27.20;1.00;;;;;;10248039;28;85539;-47
2022/06/22 09:22:55;;;;;;;;;;;27.20;1.00;;;;;;10247883;28;84169;-48
2022/06/22 09:28:01;;;;;;;;;;;26.90;1.00;;;;;;10242359;28;85419;-46
2022/06/22 09:33:05;;;;;;;;;;;27.10;1.00;;;;;;10211372;28;84144;-46
2022/06/22 09:38:20;;;;;;;;;;;28.00;1.00;;;;;;10249164;28;84881;-48
2022/06/22 09:43:40;;;;;;;;;;;29.20;1.00;;;;;;10243397;28;84753;-47
2022/06/22 09:48:55;;;;;;;;;;;29.50;1.00;;;;;;10210057;28;85095;-53
2022/06/22 09:53:56;;;;;;;;;;;30.50;1.00;;;;;;10219065;28;84165;-51
2022/06/22 09:59:12;;;;;;;;;;;31.20;1.00;;;;;;10245608;28;84228;-55
2022/06/22 10:04:26;;;;;;;;;;;31.60;1.00;;;;;;10235375;28;84898;-52
2022/06/22 10:09:42;;;;;;;;;;;32.00;1.00;;;;;;10206404;28;86040;-53
2022/06/22 10:14:48;;;;;;;;;;;32.30;1.00;;;;;;10224323;28;84766;-53
2022/06/22 10:20:08;;;;;;;;;;;32.40;1.00;;;;;;10246088;28;87021;-53
2022/06/22 10:25:29;;;;;;;;;;;33.40;1.00;;;;;;10227330;28;84296;-50
2022/06/22 10:30:36;;;;;;;;;;;33.70;1.00;;;;;;10206568;28;84138;-52
2022/06/22 10:35:45;;;;;;;;;;;33.90;1.00;;;;;;10207299;28;84464;-51
2022/06/22 10:46:25;;;;;;;;;;;33.40;99.90;;;;;;10239523;28;87231;-50
2022/06/22 10:51:26;;;;;;;;;;;34.50;1.00;;;;;;10242142;28;85005;-48
2022/06/22 10:56:45;;;;;;;;;;;34.30;99.90;;;;;;10242148;28;84229;-47
2022/06/22 11:01:49;;;;;;;;;;;33.70;99.90;;;;;;10241955;28;84895;-44
2022/06/22 11:07:04;;;;;;;;;;;33.80;1.00;;;;;;10243845;28;84570;-46
2022/06/22 11:12:07;;;;;;;;;;;34.10;1.00;;;;;;10242179;28;84357;-48
2022/06/22 11:17:31;;;;;;;;;;;33.40;1.00;;;;;;10241030;28;84491;-48
2022/06/22 11:22:35;;;;;;;;;;;34.40;1.00;;;;;;10241897;28;84057;-48
2022/06/22 11:33:14;;;;;;;;;;;34.90;99.90;;;;;;10242323;28;84253;-47
2022/06/22 11:38:23;;;;;;;;;;;35.50;99.90;;;;;;10243095;28;85087;-49
2022/06/22 11:43:42;;;;;;;;;;;35.10;99.90;;;;;;10235722;28;85614;-48
2022/06/22 11:48:43;;;;;;;;;;;36.00;99.90;;;;;;10243065;28;84254;-51
2022/06/22 11:53:57;;;;;;;;;;;35.50;99.90;;;;;;10240103;28;86396;-46
2022/06/22 11:59:16;;;;;;;;;;;35.90;99.90;;;;;;10241240;28;84190;-50
2022/06/22 12:04:35;;;;;;;;;;;35.90;99.90;;;;;;10231224;28;84315;-46
2022/06/22 12:09:39;;;;;;;;;;;35.50;99.90;;;;;;10239340;28;84726;-49
2022/06/22 12:15:10;;;;;;;;;;;36.00;99.90;;;;;;10240093;28;84936;-47
2022/06/22 12:20:30;;;;;;;;;;;36.00;99.90;;;;;;10243001;28;85501;-50
2022/06/22 12:25:53;;;;;;;;;;;35.60;99.90;;;;;;10248085;28;84684;-47
2022/06/22 12:30:56;;;;;;;;;;;35.70;99.90;;;;;;10265021;28;84070;-48
2022/06/22 12:36:01;;;;;;;;;;;35.80;99.90;;;;;;10247388;28;84283;-47
2022/06/22 12:41:21;;;;;;;;;;;36.30;99.90;;;;;;10247926;28;84678;-47
2022/06/22 12:46:24;;;;;;;;;;;36.40;99.90;;;;;;10244925;28;85139;-47
2022/06/22 12:51:33;;;;;;;;;;;36.10;99.90;;;;;;10250664;28;85008;-48
2022/06/22 12:56:41;;;;;;;;;;;36.00;99.90;;;;;;10246160;28;85026;-49
2022/06/22 13:01:42;;;;;;;;;;;35.70;99.90;;;;;;10247912;28;84982;-47
2022/06/22 13:06:49;;;;;;;;;;;36.00;99.90;;;;;;10247395;28;84843;-50
2022/06/22 13:11:50;;;;;;;;;;;36.40;99.90;;;;;;10248484;28;84973;-52
2022/06/22 13:16:57;;;;;;;;;;;36.00;99.90;;;;;;10231773;28;85137;-49
2022/06/22 13:22:04;;;;;;;;;;;36.50;99.90;;;;;;10248137;28;84349;-48
2022/06/22 13:27:10;;;;;;;;;;;35.80;99.90;;;;;;10249354;28;84796;-55
2022/06/22 13:32:12;;;;;;;;;;;36.80;99.90;;;;;;10250273;28;85181;-56
2022/06/22 13:37:15;;;;;;;;;;;36.30;99.90;;;;;;10250983;28;84713;-51
2022/06/22 13:42:25;;;;;;;;;;;35.90;99.90;;;;;;10250779;28;84937;-56
2022/06/22 13:47:44;;;;;;;;;;;35.40;99.90;;;;;;10240021;22;84315;-55
2022/06/22 13:52:50;;;;;;;;;;;34.50;99.90;;;;;;10206500;28;85231;-55
2022/06/22 13:57:56;;;;;;;;;;;34.10;99.90;;;;;;10206664;28;85020;-56
2022/06/22 14:03:08;;;;;;;;;;;33.40;99.90;;;;;;10195520;28;85163;-53
2022/06/22 14:08:09;;;;;;;;;;;32.50;99.90;;;;;;10203767;28;84770;-50
2022/06/22 14:13:16;;;;;;;;;;;31.50;99.90;;;;;;10205009;28;84097;-47
2022/06/22 14:18:26;;;;;;;;;;;30.80;99.90;;;;;;10205014;28;84147;-52
2022/06/22 14:23:27;;;;;;;;;;;30.50;99.90;;;;;;10199661;28;84150;-54
2022/06/22 14:28:42;;;;;;;;;;;30.00;99.90;;;;;;10200673;28;84330;-51
2022/06/22 14:33:48;;;;;;;;;;;29.60;99.90;;;;;;10203615;28;84126;-51
2022/06/22 14:38:59;;;;;;;;;;;29.00;99.90;;;;;;10202380;28;84241;-48
2022/06/22 14:44:16;;;;;;;;;;;29.30;99.90;;;;;;10204009;28;84831;-53
2022/06/22 14:49:21;;;;;;;;;;;29.40;99.90;;;;;;10203753;28;84195;-59
2022/06/22 14:54:32;;;;;;;;;;;29.30;99.90;;;;;;10205632;28;84217;-65
2022/06/22 14:59:38;;;;;;;;;;;29.10;99.90;;;;;;10206074;28;85008;-51
2022/06/22 15:04:45;;;;;;;;;;;28.90;99.90;;;;;;10201977;28;84869;-62
2022/06/22 15:09:48;;;;;;;;;;;28.80;99.90;;;;;;10202491;28;84780;-60
2022/06/22 15:15:09;;;;;;;;;;;28.80;99.90;;;;;;10205131;28;84841;-47
2022/06/22 15:20:10;;;;;;;;;;;28.90;1.00;;;;;;10202646;28;84899;-65
2022/06/22 15:25:13;;;;;;;;;;;28.70;99.90;;;;;;10202415;28;84833;-63
2022/06/22 15:30:17;;;;;;;;;;;28.40;99.90;;;;;;10204777;28;84028;-61
2022/06/22 15:35:20;;;;;;;;;;;28.40;99.90;;;;;;10204492;28;84909;-57
2022/06/22 15:40:39;;;;;;;;;;;28.50;99.90;;;;;;10202242;28;84934;-60
2022/06/22 15:46:13;;;;;;;;;;;28.30;99.90;;;;;;10199193;28;84227;-46
2022/06/22 15:51:32;;;;;;;;;;;28.30;99.90;;;;;;10186922;28;85894;-48
2022/06/22 15:56:51;;;;;;;;;;;27.90;99.90;;;;;;10209872;28;84158;-45
2022/06/22 16:01:54;;;;;;;;;;;27.80;99.90;;;;;;10210859;28;84601;-47
2022/06/22 16:07:06;;;;;;;;;;;27.90;99.90;;;;;;10207438;28;84126;-48
2022/06/22 16:17:53;;;;;;;;;;;27.90;99.90;;;;;;10204829;28;85071;-57
2022/06/22 16:23:01;;;;;;;;;;;27.60;99.90;;;;;;10210306;28;84877;-60
2022/06/22 16:28:04;;;;;;;;;;;27.60;99.90;;;;;;10205763;28;84881;-53
2022/06/22 16:33:09;;;;;;;;;;;27.70;99.90;;;;;;10210272;28;85887;-49
2022/06/22 16:38:20;;;;;;;;;;;27.60;99.90;;;;;;10197690;28;84601;-51
2022/06/22 16:43:23;;;;;;;;;;;27.50;1.00;;;;;;10208443;28;84944;-47
2022/06/22 16:48:27;;;;;;;;;;;27.50;1.00;;;;;;10207379;28;84266;-52
2022/06/22 16:53:51;;;;;;;;;;;27.40;1.00;;;;;;10208328;28;84519;-49
2022/06/22 16:58:58;;;;;;;;;;;27.20;1.00;;;;;;10207053;28;84343;-47
2022/06/22 17:04:18;;;;;;;;;;;27.10;1.00;;;;;;10209750;28;84759;-53
2022/06/22 17:09:23;;;;;;;;;;;27.00;1.00;;;;;;10210006;28;84174;-46
2022/06/22 17:14:31;;;;;;;;;;;27.00;1.00;;;;;;10208841;28;84192;-50
2022/06/22 17:19:51;;;;;;;;;;;26.90;1.00;;;;;;10210162;28;84264;-54
2022/06/22 17:24:52;;;;;;;;;;;26.90;1.00;;;;;;10206357;28;84426;-51
2022/06/22 17:30:01;;;;;;;;;;;26.80;1.00;;;;;;10209732;28;85080;-52
2022/06/22 17:35:05;;;;;;;;;;;26.80;1.00;;;;;;10211510;28;85011;-48
2022/06/22 17:40:15;;;;;;;;;;;26.60;1.00;;;;;;10209763;28;83986;-48
2022/06/22 17:45:34;;;;;;;;;;;26.60;1.00;;;;;;10209997;28;84958;-47
2022/06/22 17:50:49;;;;;;;;;;;26.40;1.00;;;;;;10209909;28;85121;-46
2022/06/22 17:55:52;;;;;;;;;;;26.30;1.00;;;;;;10209607;28;84897;-47
2022/06/22 18:00:53;;;;;;;;;;;26.20;1.00;;;;;;10209400;28;84111;-51
2022/06/22 18:06:14;;;;;;;;;;;26.20;1.00;;;;;;10208997;28;85112;-47
2022/06/22 18:11:15;;;;;;;;;;;26.00;1.00;;;;;;10209032;28;84029;-50
2022/06/22 18:16:19;;;;;;;;;;;26.00;1.00;;;;;;10206546;28;84011;-50
2022/06/22 18:21:32;;;;;;;;;;;25.90;1.00;;;;;;10208800;28;84778;-50
2022/06/22 18:26:39;;;;;;;;;;;25.90;1.00;;;;;;10209688;28;84328;-48
2022/06/22 18:31:43;;;;;;;;;;;25.70;1.00;;;;;;10209094;28;84812;-51
2022/06/22 18:36:51;;;;;;;;;;;25.70;1.00;;;;;;10205239;28;84497;-47
2022/06/22 18:42:04;;;;;;;;;;;25.50;1.00;;;;;;10207815;28;84197;-47
2022/06/22 18:47:10;;;;;;;;;;;25.60;1.00;;;;;;10206086;28;84886;-51
2022/06/22 18:52:15;;;;;;;;;;;25.50;1.00;;;;;;10208587;28;85074;-48
2022/06/22 18:57:28;;;;;;;;;;;25.20;1.00;;;;;;10206079;28;85955;-46
2022/06/22 19:02:40;;;;;;;;;;;25.10;1.00;;;;;;10207620;28;84342;-49
2022/06/22 19:07:42;;;;;;;;;;;25.10;1.00;;;;;;10207245;28;84095;-48
2022/06/22 19:12:48;;;;;;;;;;;24.90;1.00;;;;;;10207326;28;84904;-47
2022/06/22 19:18:03;;;;;;;;;;;24.80;1.00;;;;;;10196456;28;84862;-48
2022/06/22 19:23:13;;;;;;;;;;;24.70;1.00;;;;;;10206380;28;84877;-47
2022/06/22 19:28:20;;;;;;;;;;;24.60;1.00;;;;;;10203905;28;84252;-51
2022/06/22 19:33:26;;;;;;;;;;;24.30;1.00;;;;;;10225691;28;85258;-46
2022/06/22 19:38:38;;;;;;;;;;;24.00;1.00;;;;;;10213684;28;84315;-47
2022/06/22 19:43:39;;;;;;;;;;;23.80;1.00;;;;;;10210846;28;84191;-49
2022/06/22 19:48:39;;;;;;;;;;;23.60;1.00;;;;;;10210438;28;84264;-53
2022/06/22 19:54:00;;;;;;;;;;;23.50;1.00;;;;;;10212724;28;84246;-50
2022/06/22 19:59:01;;;;;;;;;;;23.30;1.00;;;;;;10205043;22;85459;-47
2022/06/22 20:04:19;;;;;;;;;;;23.10;1.00;;;;;;10206226;28;84223;-45
2022/06/22 20:09:28;;;;;;;;;;;23.00;1.00;;;;;;10208723;28;85016;-48
2022/06/22 20:14:51;;;;;;;;;;;22.90;1.10;;;;;;10204603;28;85594;-48
2022/06/22 20:19:52;;;;;;;;;;;22.70;15.50;;;;;;10204391;28;84297;-45
2022/06/22 20:25:02;;;;;;;;;;;22.50;44.40;;;;;;10212106;28;85062;-44
2022/06/22 20:30:14;;;;;;;;;;;22.50;1.00;;;;;;10209972;28;86465;-47
2022/06/22 20:35:24;;;;;;;;;;;22.50;1.00;;;;;;10194778;28;84545;-45
2022/06/22 20:40:29;;;;;;;;;;;22.30;93.20;;;;;;10210525;28;84200;-45
2022/06/22 20:45:33;;;;;;;;;;;22.20;1.00;;;;;;10211100;28;85104;-44
2022/06/22 20:50:40;;;;;;;;;;;22.00;1.00;;;;;;10210280;28;84069;-42
2022/06/22 20:55:43;;;;;;;;;;;21.90;92.10;;;;;;10211063;28;84171;-46
2022/06/22 21:00:45;;;;;;;;;;;21.90;99.90;;;;;;10210455;28;84798;-45
2022/06/22 21:05:48;;;;;;;;;;;21.80;99.90;;;;;;10210730;28;84199;-44
2022/06/22 21:11:07;;;;;;;;;;;21.60;99.90;;;;;;10231443;28;84971;-47
2022/06/22 21:16:27;;;;;;;;;;;21.50;12.40;;;;;;10210991;28;84208;-45
2022/06/22 21:21:34;;;;;;;;;;;21.50;99.90;;;;;;10211208;28;86752;-44
2022/06/22 21:26:36;;;;;;;;;;;21.40;1.00;;;;;;10213160;28;83995;-44
2022/06/22 21:31:56;;;;;;;;;;;21.30;1.00;;;;;;10212412;28;84777;-45
2022/06/22 21:37:07;;;;;;;;;;;21.10;1.00;;;;;;10210845;28;84579;-44
2022/06/22 21:42:08;;;;;;;;;;;21.00;1.00;;;;;;10212050;28;84754;-43
2022/06/22 21:47:29;;;;;;;;;;;20.90;1.00;;;;;;10210250;28;85100;-44
2022/06/22 21:52:41;;;;;;;;;;;20.90;37.60;;;;;;10185562;28;85081;-43
2022/06/22 21:57:48;;;;;;;;;;;20.80;46.00;;;;;;10168337;28;84991;-45
2022/06/22 22:03:24;;;;;;;;;;;20.70;99.90;;;;;;10169655;28;84715;-44
2022/06/22 22:08:26;;;;;;;;;;;20.60;99.90;;;;;;10181859;28;84775;-45
2022/06/22 22:13:30;;;;;;;;;;;20.50;99.90;;;;;;10209095;28;84207;-46
2022/06/22 22:18:31;;;;;;;;;;;20.40;99.90;;;;;;10208009;28;84892;-44
2022/06/22 22:23:33;;;;;;;;;;;20.30;99.90;;;;;;10207664;28;84777;-46
2022/06/22 22:28:42;;;;;;;;;;;20.20;99.90;;;;;;10207727;28;84457;-44
2022/06/22 22:33:43;;;;;;;;;;;20.10;99.90;;;;;;10206673;28;84210;-44
2022/06/22 22:38:45;;;;;;;;;;;20.10;99.90;;;;;;10207189;28;84145;-47
2022/06/22 22:43:55;;;;;;;;;;;20.00;1.00;;;;;;10206896;28;84865;-46
2022/06/22 22:49:15;;;;;;;;;;;19.90;99.90;;;;;;10205825;28;84941;-43
2022/06/22 22:54:34;;;;;;;;;;;19.90;99.90;;;;;;10207465;28;84920;-46
2022/06/22 22:59:37;;;;;;;;;;;19.60;1.00;;;;;;10204451;28;84938;-46
2022/06/22 23:04:39;;;;;;;;;;;19.60;1.00;;;;;;10219728;28;86047;-46
2022/06/22 23:09:40;;;;;;;;;;;19.50;1.00;;;;;;10205773;28;84093;-46
2022/06/22 23:14:41;;;;;;;;;;;19.50;1.00;;;;;;10206089;28;84121;-45
2022/06/22 23:19:44;;;;;;;;;;;19.40;3.80;;;;;;10204145;28;87092;-47
2022/06/22 23:24:47;;;;;;;;;;;19.30;99.90;;;;;;10206142;28;84988;-45
2022/06/22 23:29:48;;;;;;;;;;;19.20;1.00;;;;;;10187807;28;84973;-45
2022/06/22 23:35:01;;;;;;;;;;;19.10;1.00;;;;;;10205805;28;84983;-44
2022/06/22 23:40:02;;;;;;;;;;;19.00;99.90;;;;;;10205244;28;84131;-46
2022/06/22 23:45:04;;;;;;;;;;;18.90;1.00;;;;;;10204977;28;84050;-44
2022/06/22 23:50:09;;;;;;;;;;;18.90;1.00;;;;;;10203914;28;85840;-43
2022/06/22 23:55:13;;;;;;;;;;;18.80;99.90;;;;;;10204604;28;84962;-44
